createdAt,value
2022-10-25T00:00:50.481Z,23.62
2022-10-25T00:03:23.419Z,23.62
2022-10-25T00:05:56.364Z,23.61
2022-10-25T00:08:29.409Z,23.61
2022-10-25T00:11:02.482Z,23.60
2022-10-25T00:13:35.415Z,23.60
2022-10-25T00:16:08.422Z,23.59
2022-10-25T00:18:41.485Z,23.59
2022-10-25T00:21:14.526Z,23.59
2022-10-25T00:23:47.500Z,23.59
2022-10-25T00:26:20.444Z,23.58
2022-10-25T00:28:53.484Z,23.58
2022-10-25T00:31:26.507Z,23.58
2022-10-25T00:33:59.481Z,23.57
2022-10-25T00:36:32.457Z,23.57
2022-10-25T00:39:05.422Z,23.57
2022-10-25T00:41:38.442Z,23.57
2022-10-25T00:44:11.591Z,23.56
2022-10-25T00:46:59.369Z,23.56
2022-10-25T00:49:32.529Z,23.56
2022-10-25T00:52:05.549Z,23.55
2022-10-25T00:54:38.474Z,23.55
2022-10-25T00:57:11.565Z,23.54
2022-10-25T00:59:44.475Z,23.54
2022-10-25T01:02:17.627Z,23.54
2022-10-25T01:04:50.479Z,23.53
2022-10-25T01:07:23.568Z,23.53
2022-10-25T01:09:56.474Z,23.53
2022-10-25T01:12:29.466Z,23.52
2022-10-25T01:15:02.176Z,23.52
2022-10-25T01:17:49.424Z,23.51
2022-10-25T01:20:22.218Z,23.51
2022-10-25T01:22:55.574Z,23.50
2022-10-25T01:25:28.576Z,23.50
2022-10-25T01:28:04.460Z,23.49
2022-10-25T01:30:37.343Z,23.49
2022-10-25T01:33:10.537Z,23.48
2022-10-25T01:35:43.594Z,23.48
2022-10-25T01:38:16.579Z,23.48
2022-10-25T01:40:49.478Z,23.47
2022-10-25T01:43:22.530Z,23.47
2022-10-25T01:45:55.513Z,23.46
2022-10-25T01:48:28.528Z,23.46
2022-10-25T01:51:01.615Z,23.46
2022-10-25T01:53:34.558Z,23.45
2022-10-25T01:56:07.637Z,23.45
2022-10-25T01:58:40.638Z,23.45
2022-10-25T02:01:13.715Z,23.44
2022-10-25T02:03:46.444Z,23.44
2022-10-25T02:06:19.673Z,23.44
2022-10-25T02:08:52.643Z,23.43
2022-10-25T02:11:25.613Z,23.43
2022-10-25T02:13:58.639Z,23.43
2022-10-25T02:16:31.545Z,23.42
2022-10-25T02:19:04.561Z,23.42
2022-10-25T02:21:37.641Z,23.41
2022-10-25T02:24:13.638Z,23.41
2022-10-25T02:26:46.683Z,23.41
2022-10-25T02:29:33.592Z,23.41
2022-10-25T02:32:06.614Z,23.40
2022-10-25T02:34:39.654Z,23.40
2022-10-25T02:37:15.424Z,23.40
2022-10-25T02:40:02.626Z,23.40
2022-10-25T02:42:35.647Z,23.39
2022-10-25T02:45:08.707Z,23.39
2022-10-25T02:47:41.591Z,23.38
2022-10-25T02:50:17.537Z,23.38
2022-10-25T02:52:50.594Z,23.38
2022-10-25T02:55:23.743Z,23.38
2022-10-25T02:57:56.601Z,23.37
2022-10-25T03:00:29.822Z,23.37
2022-10-25T03:03:02.623Z,23.37
2022-10-25T03:05:35.679Z,23.36
2022-10-25T03:08:08.736Z,23.36
2022-10-25T03:10:41.511Z,23.35
2022-10-25T03:13:14.736Z,23.35
2022-10-25T03:15:47.646Z,23.35
2022-10-25T03:18:20.622Z,23.35
2022-10-25T03:20:53.720Z,23.34
2022-10-25T03:23:26.734Z,23.34
2022-10-25T03:25:59.750Z,23.33
2022-10-25T03:28:32.776Z,23.33
2022-10-25T03:31:05.725Z,23.33
2022-10-25T03:33:38.670Z,23.32
2022-10-25T03:36:11.842Z,23.32
2022-10-25T03:38:45.687Z,23.32
2022-10-25T03:41:18.702Z,23.31
2022-10-25T03:43:51.754Z,23.31
2022-10-25T03:46:24.757Z,23.31
2022-10-25T03:48:57.701Z,23.30
2022-10-25T03:51:30.745Z,23.30
2022-10-25T03:54:03.706Z,23.29
2022-10-25T03:56:36.790Z,23.29
2022-10-25T03:59:09.595Z,23.29
2022-10-25T04:01:42.849Z,23.28
2022-10-25T04:04:15.721Z,23.28
2022-10-25T04:06:48.830Z,23.28
2022-10-25T04:09:35.662Z,23.28
2022-10-25T04:12:08.851Z,23.28
2022-10-25T04:14:41.750Z,23.27
2022-10-25T04:17:14.809Z,23.27
2022-10-25T04:19:47.728Z,23.27
2022-10-25T04:22:20.436Z,23.26
2022-10-25T04:24:53.490Z,23.26
2022-10-25T04:27:26.855Z,23.26
2022-10-25T04:29:59.780Z,23.26
2022-10-25T04:32:32.505Z,23.26
2022-10-25T04:35:05.745Z,23.25
2022-10-25T04:37:38.758Z,23.25
2022-10-25T04:40:11.783Z,23.24
2022-10-25T04:42:45.153Z,23.24
2022-10-25T04:45:17.798Z,23.23
2022-10-25T04:47:50.868Z,23.23
2022-10-25T04:50:23.804Z,23.23
2022-10-25T04:52:56.861Z,23.22
2022-10-25T04:55:43.842Z,23.21
2022-10-25T04:58:16.911Z,23.21
2022-10-25T05:00:49.837Z,23.21
2022-10-25T05:03:22.949Z,23.20
2022-10-25T05:05:55.867Z,23.20
2022-10-25T05:08:28.504Z,23.20
2022-10-25T05:11:01.901Z,23.19
2022-10-25T05:13:34.940Z,23.19
2022-10-25T05:16:07.904Z,23.18
2022-10-25T05:18:40.611Z,23.18
2022-10-25T05:21:13.887Z,23.18
2022-10-25T05:23:46.870Z,23.18
2022-10-25T05:26:19.834Z,23.17
2022-10-25T05:28:52.933Z,23.17
2022-10-25T05:31:25.626Z,23.17
2022-10-25T05:33:58.580Z,23.17
2022-10-25T05:36:31.946Z,23.16
2022-10-25T05:39:18.915Z,23.15
2022-10-25T05:41:51.933Z,23.13
2022-10-25T05:44:24.622Z,23.11
2022-10-25T05:46:58.980Z,23.09
2022-10-25T05:49:31.949Z,23.08
2022-10-25T05:52:04.830Z,23.08
2022-10-25T05:54:37.908Z,23.08
2022-10-25T05:57:10.834Z,23.08
2022-10-25T05:59:43.899Z,23.08
2022-10-25T06:02:16.852Z,23.09
2022-10-25T06:04:52.365Z,23.09
2022-10-25T06:07:23.013Z,23.10
2022-10-25T06:09:55.807Z,23.10
2022-10-25T06:12:28.738Z,23.11
2022-10-25T06:15:01.696Z,23.12
2022-10-25T06:17:36.964Z,23.13
2022-10-25T06:20:09.654Z,23.14
2022-10-25T06:22:42.774Z,23.15
2022-10-25T06:25:15.656Z,23.16
2022-10-25T06:27:49.028Z,23.16
2022-10-25T06:30:21.920Z,23.17
2022-10-25T06:32:54.827Z,23.18
2022-10-25T06:35:27.794Z,23.19
2022-10-25T06:38:00.771Z,23.20
2022-10-25T06:40:33.724Z,23.21
2022-10-25T06:43:06.801Z,23.22
2022-10-25T06:45:39.665Z,23.23
2022-10-25T06:48:12.940Z,23.24
2022-10-25T06:50:48.518Z,23.24
2022-10-25T06:53:18.682Z,23.25
2022-10-25T06:55:52.063Z,23.26
2022-10-25T06:58:24.823Z,23.26
2022-10-25T07:00:57.728Z,23.27
2022-10-25T07:03:31.041Z,23.27
2022-10-25T07:06:03.858Z,23.28
2022-10-25T07:08:36.669Z,23.28
2022-10-25T07:11:09.714Z,23.29
2022-10-25T07:13:42.901Z,23.29
2022-10-25T07:16:15.727Z,23.30
2022-10-25T07:18:48.740Z,23.31
2022-10-25T07:21:21.869Z,23.31
2022-10-25T07:23:54.840Z,23.32
2022-10-25T07:26:27.843Z,23.32
2022-10-25T07:29:00.909Z,23.33
2022-10-25T07:31:34.138Z,23.33
2022-10-25T07:34:06.735Z,23.33
2022-10-25T07:36:53.640Z,23.34
2022-10-25T07:39:26.799Z,23.35
2022-10-25T07:41:59.843Z,23.35
2022-10-25T07:44:32.796Z,23.36
2022-10-25T07:47:05.930Z,23.36
2022-10-25T07:49:39.016Z,23.37
2022-10-25T07:52:11.762Z,23.37
2022-10-25T07:54:44.951Z,23.38
2022-10-25T07:57:17.903Z,23.38
2022-10-25T07:59:50.858Z,23.39
2022-10-25T08:02:26.204Z,23.40
2022-10-25T08:04:56.921Z,23.40
2022-10-25T08:07:29.907Z,23.40
2022-10-25T08:10:02.928Z,23.40
2022-10-25T08:12:36.019Z,23.40
2022-10-25T08:15:08.835Z,23.39
2022-10-25T08:17:41.928Z,23.38
2022-10-25T08:20:14.813Z,23.37
2022-10-25T08:22:47.950Z,23.37
2022-10-25T08:25:22.531Z,23.36
2022-10-25T08:27:53.968Z,23.35
2022-10-25T08:30:26.960Z,23.34
2022-10-25T08:33:00.109Z,23.34
2022-10-25T08:35:32.967Z,23.33
2022-10-25T08:38:05.801Z,23.31
2022-10-25T08:40:38.926Z,23.31
2022-10-25T08:43:11.818Z,23.29
2022-10-25T08:45:47.135Z,23.29
2022-10-25T08:48:17.859Z,23.28
2022-10-25T08:50:50.858Z,23.27
2022-10-25T08:53:23.851Z,23.26
2022-10-25T08:56:15.561Z,23.25
2022-10-25T08:58:29.827Z,23.25
2022-10-25T09:01:03.261Z,23.24
2022-10-25T09:03:36.032Z,23.24
2022-10-25T09:06:08.934Z,23.23
2022-10-25T09:08:41.840Z,23.22
2022-10-25T09:11:14.911Z,23.22
2022-10-25T09:13:47.868Z,23.21
2022-10-25T09:16:20.988Z,23.21
2022-10-25T09:18:53.921Z,23.20
2022-10-25T09:21:26.898Z,23.20
2022-10-25T09:23:59.994Z,23.19
2022-10-25T09:26:32.945Z,23.19
2022-10-25T09:29:06.077Z,23.18
2022-10-25T09:31:38.915Z,23.18
2022-10-25T09:34:11.920Z,23.17
2022-10-25T09:36:44.970Z,23.17
2022-10-25T09:39:17.919Z,23.16
2022-10-25T09:41:50.899Z,23.16
2022-10-25T09:44:24.001Z,23.16
2022-10-25T09:46:57.218Z,23.17
2022-10-25T09:49:29.927Z,23.17
2022-10-25T09:52:03.025Z,23.18
2022-10-25T09:54:36.116Z,23.19
2022-10-25T09:57:08.960Z,23.20
2022-10-25T09:59:41.922Z,23.21
2022-10-25T10:02:15.103Z,23.22
2022-10-25T10:04:48.333Z,23.23
2022-10-25T10:07:20.928Z,23.24
2022-10-25T10:09:54.111Z,23.25
2022-10-25T10:12:26.939Z,23.26
2022-10-25T10:14:59.937Z,23.27
2022-10-25T10:17:33.114Z,23.27
2022-10-25T10:20:06.049Z,23.27
2022-10-25T10:22:39.017Z,23.27
2022-10-25T10:25:11.954Z,23.27
2022-10-25T10:27:45.466Z,23.27
2022-10-25T10:30:18.050Z,23.27
2022-10-25T10:32:52.784Z,23.26
2022-10-25T10:35:24.149Z,23.26
2022-10-25T10:37:57.246Z,23.25
2022-10-25T10:40:30.121Z,23.25
2022-10-25T10:43:04.436Z,23.24
2022-10-25T10:45:38.044Z,23.23
2022-10-25T10:48:11.012Z,23.22
2022-10-25T10:50:47.027Z,23.20
2022-10-25T10:53:17.203Z,23.19
2022-10-25T10:55:50.023Z,23.18
2022-10-25T10:58:23.162Z,23.17
2022-10-25T11:00:56.089Z,23.17
2022-10-25T11:03:29.217Z,23.17
2022-10-25T11:06:02.547Z,23.17
2022-10-25T11:08:36.185Z,23.17
2022-10-25T11:11:09.043Z,23.18
2022-10-25T11:13:42.320Z,23.18
2022-10-25T11:16:15.258Z,23.19
2022-10-25T11:18:48.039Z,23.19
2022-10-25T11:21:21.285Z,23.20
2022-10-25T11:23:54.223Z,23.21
2022-10-25T11:26:27.164Z,23.22
2022-10-25T11:29:00.174Z,23.23
2022-10-25T11:31:33.134Z,23.24
2022-10-25T11:34:07.933Z,23.25
2022-10-25T11:36:39.547Z,23.27
2022-10-25T11:39:12.334Z,23.28
2022-10-25T11:41:45.327Z,23.29
2022-10-25T11:44:32.445Z,23.30
2022-10-25T11:47:05.072Z,23.31
2022-10-25T11:49:41.296Z,23.32
2022-10-25T11:54:47.411Z,23.34
2022-10-25T11:57:20.496Z,23.35
2022-10-25T11:59:53.265Z,23.36
2022-10-25T12:02:26.460Z,23.36
2022-10-25T12:04:59.367Z,23.37
2022-10-25T12:07:32.247Z,23.38
2022-10-25T12:10:05.266Z,23.38
2022-10-25T12:12:38.125Z,23.39
2022-10-25T12:15:25.507Z,23.40
2022-10-25T12:17:58.519Z,23.41
2022-10-25T12:20:31.180Z,23.41
2022-10-25T12:23:04.271Z,23.42
2022-10-25T12:25:37.241Z,23.42
2022-10-25T12:28:10.138Z,23.41
2022-10-25T12:30:43.271Z,23.41
2022-10-25T12:33:16.154Z,23.40
2022-10-25T12:35:49.180Z,23.39
2022-10-25T12:38:22.406Z,23.38
2022-10-25T12:40:55.467Z,23.37
2022-10-25T12:43:28.323Z,23.36
2022-10-25T12:46:01.426Z,23.35
2022-10-25T12:48:34.555Z,23.34
2022-10-25T12:51:07.570Z,23.34
2022-10-25T12:53:40.613Z,23.34
2022-10-25T12:56:13.444Z,23.34
2022-10-25T12:58:46.475Z,23.34
2022-10-25T13:01:19.567Z,23.34
2022-10-25T13:03:52.241Z,23.35
2022-10-25T13:06:25.199Z,23.36
2022-10-25T13:08:58.631Z,23.36
2022-10-25T13:11:31.350Z,23.37
2022-10-25T13:14:04.485Z,23.38
2022-10-25T13:16:37.574Z,23.39
2022-10-25T13:19:10.481Z,23.40
2022-10-25T13:21:43.259Z,23.42
2022-10-25T13:24:16.722Z,23.43
2022-10-25T13:26:49.490Z,23.45
2022-10-25T13:29:22.509Z,23.47
2022-10-25T13:31:56.463Z,23.49
2022-10-25T13:34:29.637Z,23.51
2022-10-25T13:37:02.624Z,23.53
2022-10-25T13:39:35.349Z,23.55
2022-10-25T13:42:08.621Z,23.58
2022-10-25T13:44:41.550Z,23.60
2022-10-25T13:47:14.552Z,23.62
2022-10-25T13:49:47.264Z,23.64
2022-10-25T13:52:20.675Z,23.66
2022-10-25T13:54:53.692Z,23.68
2022-10-25T13:57:26.610Z,23.70
2022-10-25T13:59:59.613Z,23.72
2022-10-25T14:02:32.524Z,23.75
2022-10-25T14:05:05.552Z,23.77
2022-10-25T14:07:38.283Z,23.79
2022-10-25T14:10:11.721Z,23.81
2022-10-25T14:12:44.782Z,23.82
2022-10-25T14:15:17.689Z,23.83
2022-10-25T14:17:50.569Z,23.83
2022-10-25T14:20:23.472Z,23.84
2022-10-25T14:22:56.632Z,23.84
2022-10-25T14:25:32.568Z,23.83
2022-10-25T14:28:05.452Z,23.82
2022-10-25T14:30:38.702Z,23.81
2022-10-25T14:33:11.636Z,23.80
2022-10-25T14:35:44.586Z,23.79
2022-10-25T14:38:17.723Z,23.77
2022-10-25T14:40:50.342Z,23.75
2022-10-25T14:43:23.738Z,23.74
2022-10-25T14:45:56.685Z,23.72
2022-10-25T14:48:29.414Z,23.70
2022-10-25T14:51:02.745Z,23.68
2022-10-25T14:53:35.712Z,23.66
2022-10-25T14:56:08.696Z,23.65
2022-10-25T14:58:41.755Z,23.63
2022-10-25T15:01:14.790Z,23.61
2022-10-25T15:04:01.588Z,23.59
2022-10-25T15:06:34.741Z,23.58
2022-10-25T15:09:41.382Z,23.56
2022-10-25T15:11:40.768Z,23.55
2022-10-25T15:14:13.631Z,23.54
2022-10-25T15:16:46.546Z,23.53
2022-10-25T15:19:19.749Z,23.52
2022-10-25T15:21:52.779Z,23.52
2022-10-25T15:24:25.778Z,23.52
2022-10-25T15:26:58.706Z,23.52
2022-10-25T15:29:31.783Z,23.52
2022-10-25T15:32:04.881Z,23.52
2022-10-25T15:34:38.702Z,23.52
2022-10-25T15:37:11.396Z,23.53
2022-10-25T15:39:58.872Z,23.53
2022-10-25T15:42:31.601Z,23.53
2022-10-25T15:45:04.814Z,23.53
2022-10-25T15:47:37.737Z,23.53
2022-10-25T15:50:10.710Z,23.54
2022-10-25T15:52:43.505Z,23.54
2022-10-25T15:55:16.841Z,23.54
2022-10-25T15:57:49.768Z,23.54
2022-10-25T16:00:25.582Z,23.55
2022-10-25T16:02:55.827Z,23.55
2022-10-25T16:05:28.440Z,23.55
2022-10-25T16:08:01.515Z,23.55
2022-10-25T16:10:34.618Z,23.56
2022-10-25T16:13:07.634Z,23.56
2022-10-25T16:15:40.551Z,23.56
2022-10-25T16:18:13.529Z,23.56
2022-10-25T16:20:46.569Z,23.56
2022-10-25T16:23:19.628Z,23.57
2022-10-25T16:25:52.698Z,23.57
2022-10-25T16:30:58.500Z,23.58
2022-10-25T16:33:31.650Z,23.58
2022-10-25T16:36:04.660Z,23.59
2022-10-25T16:38:37.545Z,23.59
2022-10-25T16:41:16.425Z,23.60
2022-10-25T16:43:49.525Z,23.60
2022-10-25T16:46:22.537Z,23.60
2022-10-25T16:48:57.066Z,23.60
2022-10-25T16:51:28.638Z,23.60
2022-10-25T16:54:01.780Z,23.59
2022-10-25T16:56:34.811Z,23.59
2022-10-25T16:59:07.881Z,23.59
2022-10-25T17:01:44.576Z,23.59
2022-10-25T17:04:14.806Z,23.59
2022-10-25T17:06:47.819Z,23.59
2022-10-25T17:09:20.565Z,23.60
2022-10-25T17:12:07.587Z,23.60
2022-10-25T17:14:40.655Z,23.60
2022-10-25T17:17:15.610Z,23.61
2022-10-25T17:19:48.544Z,23.62
2022-10-25T17:22:21.596Z,23.62
2022-10-25T17:24:54.566Z,23.63
2022-10-25T17:27:27.795Z,23.64
2022-10-25T17:30:00.792Z,23.65
2022-10-25T17:32:33.875Z,23.65
2022-10-25T17:35:06.889Z,23.66
2022-10-25T17:37:39.853Z,23.67
2022-10-25T17:40:12.576Z,23.67
2022-10-25T17:42:45.735Z,23.68
2022-10-25T17:45:18.810Z,23.68
2022-10-25T17:47:51.676Z,23.68
2022-10-25T17:50:24.863Z,23.69
2022-10-25T17:52:57.613Z,23.69
2022-10-25T17:55:33.253Z,23.69
2022-10-25T17:58:03.603Z,23.69
2022-10-25T18:00:36.901Z,23.70
2022-10-25T18:03:09.691Z,23.70
2022-10-25T18:05:42.678Z,23.70
2022-10-25T18:08:15.620Z,23.71
2022-10-25T18:10:48.807Z,23.71
2022-10-25T18:13:21.804Z,23.72
2022-10-25T18:15:55.001Z,23.72
2022-10-25T18:18:27.692Z,23.73
2022-10-25T18:21:00.809Z,23.73
2022-10-25T18:23:33.774Z,23.74
2022-10-25T18:26:06.813Z,23.74
2022-10-25T18:28:39.774Z,23.74
2022-10-25T18:31:12.672Z,23.74
2022-10-25T18:33:45.865Z,23.75
2022-10-25T18:36:18.726Z,23.75
2022-10-25T18:38:51.645Z,23.75
2022-10-25T18:41:24.807Z,23.75
2022-10-25T18:43:57.847Z,23.76
2022-10-25T18:46:30.914Z,23.76
2022-10-25T18:49:09.891Z,23.76
2022-10-25T18:51:42.723Z,23.77
2022-10-25T18:54:15.976Z,23.77
2022-10-25T18:56:48.958Z,23.77
2022-10-25T18:59:22.056Z,23.76
2022-10-25T19:01:55.236Z,23.76
2022-10-25T19:04:27.724Z,23.76
2022-10-25T19:07:00.888Z,23.76
2022-10-25T19:09:33.835Z,23.76
2022-10-25T19:12:12.924Z,23.76
2022-10-25T19:14:45.746Z,23.76
2022-10-25T19:17:19.066Z,23.76
2022-10-25T19:19:52.015Z,23.76
2022-10-25T19:22:25.108Z,23.76
2022-10-25T19:27:48.118Z,23.77
2022-10-25T19:30:20.808Z,23.77
2022-10-25T19:32:53.791Z,23.77
2022-10-25T19:35:26.862Z,23.77
2022-10-25T19:37:59.823Z,23.77
2022-10-25T19:40:33.008Z,23.77
2022-10-25T19:43:05.811Z,23.77
2022-10-25T19:45:38.746Z,23.77
2022-10-25T19:48:12.142Z,23.78
2022-10-25T19:50:44.961Z,23.78
2022-10-25T19:53:18.064Z,23.78
2022-10-25T19:55:51.006Z,23.78
2022-10-25T19:58:23.847Z,23.78
2022-10-25T20:00:57.306Z,23.78
2022-10-25T20:03:31.175Z,23.78
2022-10-25T20:06:04.092Z,23.78
2022-10-25T20:08:37.175Z,23.78
2022-10-25T20:11:09.774Z,23.78
2022-10-25T20:13:42.805Z,23.78
2022-10-25T20:16:16.058Z,23.77
2022-10-25T20:18:49.225Z,23.77
2022-10-25T20:21:22.156Z,23.77
2022-10-25T20:23:54.920Z,23.77
2022-10-25T20:26:27.862Z,23.77
2022-10-25T20:29:00.797Z,23.77
2022-10-25T20:31:34.047Z,23.77
2022-10-25T20:34:07.073Z,23.77
2022-10-25T20:36:39.895Z,23.78
2022-10-25T20:39:13.151Z,23.78
2022-10-25T20:41:46.054Z,23.77
2022-10-25T20:44:18.982Z,23.77
2022-10-25T20:46:51.877Z,23.77
2022-10-25T20:49:24.916Z,23.77
2022-10-25T20:51:57.920Z,23.76
2022-10-25T20:54:30.987Z,23.75
2022-10-25T20:57:03.897Z,23.74
2022-10-25T20:59:37.103Z,23.73
2022-10-25T21:02:10.240Z,23.72
2022-10-25T21:04:53.326Z,23.72
2022-10-25T21:07:15.898Z,23.71
2022-10-25T21:09:49.641Z,23.71
2022-10-25T21:12:22.044Z,23.71
2022-10-25T21:14:55.283Z,23.70
2022-10-25T21:17:28.083Z,23.70
2022-10-25T21:20:00.895Z,23.69
2022-10-25T21:22:34.042Z,23.69
2022-10-25T21:25:07.063Z,23.69
2022-10-25T21:27:40.086Z,23.68
2022-10-25T21:30:13.109Z,23.67
2022-10-25T21:32:46.028Z,23.67
2022-10-25T21:35:19.280Z,23.66
2022-10-25T21:37:52.300Z,23.65
2022-10-25T21:40:25.064Z,23.65
2022-10-25T21:42:58.073Z,23.64
2022-10-25T21:45:37.152Z,23.63
2022-10-25T21:48:10.259Z,23.63
2022-10-25T21:50:42.994Z,23.62
2022-10-25T21:53:16.227Z,23.62
2022-10-25T21:55:49.203Z,23.61
2022-10-25T21:58:22.325Z,23.61
2022-10-25T22:00:55.246Z,23.60
2022-10-25T22:03:28.326Z,23.60
2022-10-25T22:06:01.381Z,23.59
2022-10-25T22:08:34.328Z,23.59
2022-10-25T22:11:07.350Z,23.58
2022-10-25T22:13:40.293Z,23.58
2022-10-25T22:16:13.308Z,23.57
2022-10-25T22:18:46.345Z,23.56
2022-10-25T22:21:19.388Z,23.56
2022-10-25T22:23:52.360Z,23.55
2022-10-25T22:26:25.357Z,23.55
2022-10-25T22:28:58.368Z,23.54
2022-10-25T22:31:31.346Z,23.54
2022-10-25T22:34:04.380Z,23.53
2022-10-25T22:36:37.342Z,23.52
2022-10-25T22:39:10.342Z,23.52
2022-10-25T22:41:43.407Z,23.52
2022-10-25T22:44:16.477Z,23.51
2022-10-25T22:46:49.372Z,23.51
2022-10-25T22:49:22.392Z,23.51
2022-10-25T22:51:55.422Z,23.50
2022-10-25T22:54:34.372Z,23.50
2022-10-25T22:57:07.383Z,23.50
2022-10-25T22:59:40.320Z,23.49
2022-10-25T23:02:13.405Z,23.49
2022-10-25T23:04:46.426Z,23.48
2022-10-25T23:07:19.427Z,23.48
2022-10-25T23:09:52.377Z,23.48
2022-10-25T23:12:25.427Z,23.47
2022-10-25T23:14:58.456Z,23.47
2022-10-25T23:17:31.417Z,23.46
2022-10-25T23:20:04.365Z,23.46
2022-10-25T23:22:37.446Z,23.45
2022-10-25T23:25:10.338Z,23.45
2022-10-25T23:27:43.488Z,23.44
2022-10-25T23:30:16.446Z,23.44
2022-10-25T23:32:49.385Z,23.43
2022-10-25T23:35:22.368Z,23.43
2022-10-25T23:37:55.485Z,23.42
2022-10-25T23:40:28.400Z,23.42
2022-10-25T23:43:01.504Z,23.41
2022-10-25T23:45:34.406Z,23.41
2022-10-25T23:48:07.441Z,23.40
2022-10-25T23:50:40.215Z,23.40
2022-10-25T23:53:13.465Z,23.39
2022-10-25T23:55:46.408Z,23.39
2022-10-25T23:58:19.487Z,23.38
